Time;durP1;ratioP1;P1;durP2;ratioP2;P2;SDS_P1;SDS_P2;PMS_P1;PMS_P2;Temp;Humidity;BMP_temperature;BMP_pressure;BME280_temperature;BME280_humidity;BME280_pressure;Samples;Min_cycle;Max_cycle;Signal;HPM_P1;HPM_P2
2022/06/12 00:00:40;;;;;;;;;;;;;;;21.50;50.02;101931.72;5022711;28;19917;-52
2022/06/12 00:03:07;;;;;;;;;;;;;;;21.49;50.16;101927.34;5020246;28;19924;-50
2022/06/12 00:05:34;;;;;;;;;;;;;;;21.50;49.96;101925.50;5025073;28;19932;-50
2022/06/12 00:07:59;;;;;;;;;;;;;;;21.47;49.99;101930.16;5020578;28;19928;-54
2022/06/12 00:10:25;;;;;;;;;;;;;;;21.46;50.30;101936.50;5023748;28;19952;-52
2022/06/12 00:12:50;;;;;;;;;;;;;;;21.45;50.32;101936.59;5027148;28;20300;-49
2022/06/12 00:15:18;;;;;;;;;;;;;;;21.37;50.35;101934.59;5023389;28;19956;-51
2022/06/12 00:17:44;;;;;;;;;;;;;;;21.33;50.23;101938.50;5025624;28;19951;-49
2022/06/12 00:20:10;;;;;;;;;;;;;;;21.30;50.81;101936.94;5019368;28;19917;-54
2022/06/12 00:22:36;;;;;;;;;;;;;;;21.27;50.62;101934.50;5018796;28;20045;-49
2022/06/12 00:25:01;;;;;;;;;;;;;;;21.26;50.60;101935.50;5019899;28;20012;-51
2022/06/12 00:27:26;;;;;;;;;;;;;;;21.24;50.81;101929.44;5018902;28;20029;-51
2022/06/12 00:29:52;;;;;;;;;;;;;;;21.24;50.94;101931.25;5026567;28;19999;-52
2022/06/12 00:32:18;;;;;;;;;;;;;;;21.22;50.73;101936.75;5024187;28;19936;-52
2022/06/12 00:34:46;;;;;;;;;;;;;;;21.22;51.00;101930.53;5024045;28;20374;-52
2022/06/12 00:37:13;;;;;;;;;;;;;;;21.22;51.05;101925.19;5022264;28;19951;-51
2022/06/12 00:39:39;;;;;;;;;;;;;;;21.21;50.89;101929.69;5024561;28;19917;-51
2022/06/12 00:42:05;;;;;;;;;;;;;;;21.21;50.77;101936.88;5023773;28;19928;-48
2022/06/12 00:44:34;;;;;;;;;;;;;;;21.17;51.02;101925.56;5028443;28;19917;-49
2022/06/12 00:47:02;;;;;;;;;;;;;;;21.15;51.17;101927.53;5026277;28;20444;-48
2022/06/12 00:49:30;;;;;;;;;;;;;;;21.15;51.00;101920.38;5023595;28;19962;-49
2022/06/12 00:52:06;;;;;;;;;;;;;;;21.14;51.25;101925.81;5021694;28;20008;-49
2022/06/12 00:54:33;;;;;;;;;;;;;;;21.12;51.26;101927.78;5029356;28;19917;-48
2022/06/12 00:57:00;;;;;;;;;;;;;;;21.12;51.37;101930.47;5024760;28;20300;-52
2022/06/12 00:59:40;;;;;;;;;;;;;;;21.11;51.36;101928.75;5018760;28;19924;-53
2022/06/12 01:02:07;;;;;;;;;;;;;;;21.11;50.96;101926.94;5023475;28;19928;-50
2022/06/12 01:07:18;;;;;;;;;;;;;;;21.08;51.26;101929.03;5025351;28;19948;-51
2022/06/12 01:09:46;;;;;;;;;;;;;;;21.06;51.43;101920.28;5024002;28;19928;-49
2022/06/12 01:12:14;;;;;;;;;;;;;;;21.06;51.22;101920.28;5022882;28;19921;-49
2022/06/12 01:14:41;;;;;;;;;;;;;;;21.05;51.51;101923.94;5020389;28;19925;-49
2022/06/12 01:17:07;;;;;;;;;;;;;;;21.04;51.65;101928.44;5022367;28;19935;-51
2022/06/12 01:19:34;;;;;;;;;;;;;;;21.03;51.31;101926.72;5027631;28;20280;-49
2022/06/12 01:21:59;;;;;;;;;;;;;;;21.00;51.67;101927.00;5027787;28;20004;-51
2022/06/12 01:24:43;;;;;;;;;;;;;;;20.97;51.78;101930.78;5025858;28;20008;-50
2022/06/12 01:27:08;;;;;;;;;;;;;;;20.96;51.59;101926.38;5021159;28;19979;-48
2022/06/12 01:29:38;;;;;;;;;;;;;;;20.93;51.71;101924.00;5024292;28;20324;-52
2022/06/12 01:32:15;;;;;;;;;;;;;;;20.86;51.92;101933.50;5028026;28;19926;-48
2022/06/12 01:34:48;;;;;;;;;;;;;;;20.81;51.95;101933.00;5024162;28;20388;-49
2022/06/12 01:37:19;;;;;;;;;;;;;;;20.78;51.89;101944.81;5026787;28;19917;-51
2022/06/12 01:40:02;;;;;;;;;;;;;;;20.73;51.93;101938.13;5029507;28;19920;-47
2022/06/12 01:42:49;;;;;;;;;;;;;;;20.67;52.06;101924.28;5027044;28;20386;-49
2022/06/12 01:45:37;;;;;;;;;;;;;;;20.63;51.94;101928.19;5030706;28;19917;-50
2022/06/12 01:48:03;;;;;;;;;;;;;;;20.64;52.02;101924.56;5014266;28;20288;-50
2022/06/12 01:50:31;;;;;;;;;;;;;;;20.63;51.99;101922.00;5024881;28;19924;-49
2022/06/12 01:53:08;;;;;;;;;;;;;;;20.64;51.79;101921.88;5022902;28;20448;-48
2022/06/12 01:55:33;;;;;;;;;;;;;;;20.64;52.00;101921.88;5026258;28;20597;-47
2022/06/12 01:57:59;;;;;;;;;;;;;;;20.63;52.17;101930.00;5026705;28;19921;-47
2022/06/12 02:00:26;;;;;;;;;;;;;;;20.60;52.17;101928.44;5022431;28;19984;-50
2022/06/12 02:02:55;;;;;;;;;;;;;;;20.55;52.17;101919.94;5012509;28;20329;-47
2022/06/12 02:05:22;;;;;;;;;;;;;;;20.50;51.95;101909.63;5023070;28;20357;-47
2022/06/12 02:07:57;;;;;;;;;;;;;;;20.50;52.09;101911.44;5025026;28;20043;-49
2022/06/12 02:10:27;;;;;;;;;;;;;;;20.50;52.42;101916.78;5015965;28;19932;-50
2022/06/12 02:13:11;;;;;;;;;;;;;;;20.50;52.42;101919.47;5025380;28;19921;-49
2022/06/12 02:16:11;;;;;;;;;;;;;;;20.49;52.32;101928.47;5023847;28;20267;-47
2022/06/12 02:18:39;;;;;;;;;;;;;;;20.46;52.33;101912.69;4964395;28;19974;-49
2022/06/12 02:21:10;;;;;;;;;;;;;;;20.45;52.24;101919.00;5011984;28;19921;-47
2022/06/12 02:23:41;;;;;;;;;;;;;;;20.44;52.36;101917.31;5028181;28;19917;-50
2022/06/12 02:26:10;;;;;;;;;;;;;;;20.43;52.18;101919.13;5023789;28;19921;-49
2022/06/12 02:28:41;;;;;;;;;;;;;;;20.39;52.11;101915.84;5028697;28;19959;-50
2022/06/12 02:31:12;;;;;;;;;;;;;;;20.37;52.33;101916.97;5027023;28;20355;-47
2022/06/12 02:33:40;;;;;;;;;;;;;;;20.35;52.55;101917.06;5028781;28;20035;-49
2022/06/12 02:36:29;;;;;;;;;;;;;;;20.26;52.55;101907.13;5030775;28;19914;-50
2022/06/12 02:39:05;;;;;;;;;;;;;;;20.19;52.63;101900.59;5016453;28;20042;-47
2022/06/12 02:41:38;;;;;;;;;;;;;;;20.14;52.62;101906.28;5027115;28;19917;-47
2022/06/12 02:44:07;;;;;;;;;;;;;;;20.12;52.69;101905.56;5023849;28;19917;-49
2022/06/12 02:46:47;;;;;;;;;;;;;;;20.09;52.64;101901.31;5008908;28;19960;-48
2022/06/12 02:49:13;;;;;;;;;;;;;;;20.08;52.75;101899.63;5028475;28;19925;-47
2022/06/12 02:51:38;;;;;;;;;;;;;;;20.07;52.78;101887.22;5027608;28;20560;-46
2022/06/12 02:54:17;;;;;;;;;;;;;;;20.06;52.69;101898.88;5028585;28;20380;-47
2022/06/12 02:56:50;;;;;;;;;;;;;;;20.04;52.65;101892.81;5024274;28;19970;-49
2022/06/12 02:59:15;;;;;;;;;;;;;;;20.02;52.96;101889.44;5022462;28;19936;-47
2022/06/12 03:02:05;;;;;;;;;;;;;;;20.02;52.75;101893.91;5023329;28;19917;-48
2022/06/12 03:04:42;;;;;;;;;;;;;;;20.01;53.08;101893.06;5020419;28;19944;-50
2022/06/12 03:07:08;;;;;;;;;;;;;;;19.96;53.09;101889.91;5028933;28;19936;-47
2022/06/12 03:09:33;;;;;;;;;;;;;;;19.91;53.09;101889.41;5028234;28;19917;-48
2022/06/12 03:11:59;;;;;;;;;;;;;;;19.89;53.24;101883.38;5022710;28;19921;-47
2022/06/12 03:14:24;;;;;;;;;;;;;;;19.89;53.26;101883.38;5026152;28;19917;-48
2022/06/12 03:16:50;;;;;;;;;;;;;;;19.90;53.19;101880.56;5026270;28;19917;-47
2022/06/12 03:19:17;;;;;;;;;;;;;;;19.91;53.00;101879.59;5022560;28;19918;-49
2022/06/12 03:21:43;;;;;;;;;;;;;;;19.92;53.09;101883.09;5029840;28;20381;-48
2022/06/12 03:24:08;;;;;;;;;;;;;;;19.89;53.17;101888.72;5026857;28;19924;-49
2022/06/12 03:26:33;;;;;;;;;;;;;;;19.86;53.10;101887.09;5026271;28;19917;-48
2022/06/12 03:29:06;;;;;;;;;;;;;;;19.86;53.08;101894.25;5028640;28;19928;-49
2022/06/12 03:31:44;;;;;;;;;;;;;;;19.85;53.29;101897.91;5026504;28;19967;-46
2022/06/12 03:34:15;;;;;;;;;;;;;;;19.85;53.04;101900.56;5022677;28;19959;-50
2022/06/12 03:36:45;;;;;;;;;;;;;;;19.78;53.21;101903.72;5029350;28;20535;-49
2022/06/12 03:39:22;;;;;;;;;;;;;;;19.70;52.91;101900.81;5024754;28;19928;-50
2022/06/12 03:41:51;;;;;;;;;;;;;;;19.67;53.25;101901.06;5023808;28;19920;-49
2022/06/12 03:44:21;;;;;;;;;;;;;;;19.65;53.16;101898.50;5026309;28;20346;-48
2022/06/12 03:46:50;;;;;;;;;;;;;;;19.67;53.02;101898.38;5025224;28;19925;-50
2022/06/12 03:49:21;;;;;;;;;;;;;;;19.67;53.31;101894.84;5027718;28;19917;-48
2022/06/12 03:51:52;;;;;;;;;;;;;;;19.66;53.34;101894.00;5024364;28;20320;-49
2022/06/12 03:54:31;;;;;;;;;;;;;;;19.66;53.51;101894.00;5023161;28;20376;-47
2022/06/12 03:59:55;;;;;;;;;;;;;;;19.67;53.37;101895.72;5025675;28;19924;-48
2022/06/12 04:02:22;;;;;;;;;;;;;;;19.66;53.08;101891.34;5019428;28;20003;-49
2022/06/12 04:04:48;;;;;;;;;;;;;;;19.66;53.31;101880.66;5023347;28;20359;-48
2022/06/12 04:07:15;;;;;;;;;;;;;;;19.69;53.30;101877.75;5025126;28;19973;-48
2022/06/12 04:09:43;;;;;;;;;;;;;;;19.73;53.29;101886.38;5026596;28;19917;-47
2022/06/12 04:12:11;;;;;;;;;;;;;;;19.75;53.14;101893.28;5026894;28;20384;-48
2022/06/12 04:14:43;;;;;;;;;;;;;;;19.78;53.28;101887.69;5025660;28;19921;-50
2022/06/12 04:17:08;;;;;;;;;;;;;;;19.81;53.35;101891.97;5022855;28;20655;-50
2022/06/12 04:19:58;;;;;;;;;;;;;;;19.85;53.30;101892.56;5017804;28;20008;-48
2022/06/12 04:22:22;;;;;;;;;;;;;;;19.89;53.44;101900.25;5024067;28;20012;-49
2022/06/12 04:24:51;;;;;;;;;;;;;;;19.89;53.70;101899.41;5026968;28;19921;-49
2022/06/12 04:27:17;;;;;;;;;;;;;;;19.91;53.65;101903.63;5025908;28;19965;-48
2022/06/12 04:29:50;;;;;;;;;;;;;;;19.88;53.64;101909.22;5027913;28;19952;-47
2022/06/12 04:32:15;;;;;;;;;;;;;;;19.83;53.95;101907.84;5024771;28;19917;-49
2022/06/12 04:34:42;;;;;;;;;;;;;;;19.79;54.11;101905.41;5021185;28;19928;-48
2022/06/12 04:37:22;;;;;;;;;;;;;;;19.84;53.96;101898.88;5019051;28;19925;-48
2022/06/12 04:39:48;;;;;;;;;;;;;;;19.90;54.19;101896.59;5016411;28;19929;-48
2022/06/12 04:42:15;;;;;;;;;;;;;;;19.95;54.04;101896.22;5022012;28;20308;-49
2022/06/12 04:44:40;;;;;;;;;;;;;;;20.01;54.35;101898.41;5026982;28;20588;-49
2022/06/12 04:47:06;;;;;;;;;;;;;;;20.08;53.94;101891.59;5026504;28;20395;-48
2022/06/12 04:49:34;;;;;;;;;;;;;;;20.14;54.19;101890.25;5024018;28;19925;-48
2022/06/12 04:52:01;;;;;;;;;;;;;;;20.19;54.12;101892.56;5026895;28;19917;-48
2022/06/12 04:54:28;;;;;;;;;;;;;;;20.24;54.33;101890.38;5029262;28;19925;-49
2022/06/12 04:56:53;;;;;;;;;;;;;;;20.28;54.19;101890.97;5029974;28;19928;-48
2022/06/12 04:59:19;;;;;;;;;;;;;;;20.29;54.14;101892.66;5028962;28;19921;-48
2022/06/12 05:01:45;;;;;;;;;;;;;;;20.32;54.07;101898.63;5028972;28;19971;-48
2022/06/12 05:04:11;;;;;;;;;;;;;;;20.38;54.38;101903.44;5027712;28;19921;-49
2022/06/12 05:06:37;;;;;;;;;;;;;;;20.44;54.17;101894.09;5027135;28;19952;-51
2022/06/12 05:09:03;;;;;;;;;;;;;;;20.50;54.08;101882.91;5023504;28;20400;-49
2022/06/12 05:11:28;;;;;;;;;;;;;;;20.60;54.12;101883.00;5026957;28;19928;-48
2022/06/12 05:13:54;;;;;;;;;;;;;;;20.66;53.90;101876.28;5030636;28;19917;-50
2022/06/12 05:16:39;;;;;;;;;;;;;;;20.76;54.06;101873.72;5029718;28;19921;-48
2022/06/12 05:19:06;;;;;;;;;;;;;;;20.86;53.80;101880.00;5026186;28;19917;-48
2022/06/12 05:21:32;;;;;;;;;;;;;;;20.94;54.00;101882.91;5025962;28;19931;-48
2022/06/12 05:23:58;;;;;;;;;;;;;;;21.00;53.95;101879.69;5022310;28;19972;-48
2022/06/12 05:26:24;;;;;;;;;;;;;;;21.08;53.49;101888.91;5027921;28;19976;-49
2022/06/12 05:28:50;;;;;;;;;;;;;;;21.12;53.59;101890.31;5027157;28;19921;-50
2022/06/12 05:31:16;;;;;;;;;;;;;;;21.16;53.60;101887.28;5031356;28;19917;-48
2022/06/12 05:33:42;;;;;;;;;;;;;;;21.20;53.43;101890.53;5031954;28;20071;-50
2022/06/12 05:36:08;;;;;;;;;;;;;;;21.23;53.58;101886.72;5024450;28;19952;-49
2022/06/12 05:38:33;;;;;;;;;;;;;;;21.26;53.67;101891.84;5027311;28;19929;-49
2022/06/12 05:40:58;;;;;;;;;;;;;;;21.27;54.03;101897.03;5025261;28;19921;-50
2022/06/12 05:43:24;;;;;;;;;;;;;;;21.28;53.69;101888.03;5026739;28;19932;-47
2022/06/12 05:45:49;;;;;;;;;;;;;;;21.30;54.10;101895.94;5027259;28;19928;-49
2022/06/12 05:48:17;;;;;;;;;;;;;;;21.32;54.17;101900.19;5026027;28;20379;-48
2022/06/12 05:50:47;;;;;;;;;;;;;;;21.34;54.26;101907.22;5026580;28;19923;-47
2022/06/12 05:53:14;;;;;;;;;;;;;;;21.35;54.19;101906.25;5025217;28;20312;-49
2022/06/12 05:55:39;;;;;;;;;;;;;;;21.35;54.31;101906.25;5026177;28;19918;-48
2022/06/12 05:58:05;;;;;;;;;;;;;;;21.32;54.29;101913.56;5027437;28;19935;-48
2022/06/12 06:00:33;;;;;;;;;;;;;;;21.30;54.13;101920.88;5024081;28;19964;-48
2022/06/12 06:02:58;;;;;;;;;;;;;;;21.29;54.13;101918.34;5024857;28;20320;-49
2022/06/12 06:05:24;;;;;;;;;;;;;;;21.26;54.04;101913.25;5022035;28;19923;-51
2022/06/12 06:07:49;;;;;;;;;;;;;;;21.25;54.10;101912.38;5029832;28;19929;-47
2022/06/12 06:10:17;;;;;;;;;;;;;;;21.22;54.22;101910.00;5021171;28;19917;-48
2022/06/12 06:12:42;;;;;;;;;;;;;;;21.21;54.15;101913.63;5024525;28;20004;-47
2022/06/12 06:15:08;;;;;;;;;;;;;;;21.19;54.24;101910.25;5025454;28;20004;-52
2022/06/12 06:17:33;;;;;;;;;;;;;;;21.20;54.29;101895.88;5022669;28;19932;-48
2022/06/12 06:19:58;;;;;;;;;;;;;;;21.24;54.07;101899.13;5024985;28;20328;-49
2022/06/12 06:22:24;;;;;;;;;;;;;;;21.29;54.14;101894.25;5026443;28;20056;-52
2022/06/12 06:24:49;;;;;;;;;;;;;;;21.35;53.91;101892.88;5028636;28;19921;-51
2022/06/12 06:27:15;;;;;;;;;;;;;;;21.40;54.10;101886.13;5028412;28;20297;-47
2022/06/12 06:29:41;;;;;;;;;;;;;;;21.48;54.42;101883.63;5024544;28;19921;-49
2022/06/12 06:32:07;;;;;;;;;;;;;;;21.57;54.05;101884.66;5030518;28;19948;-52
2022/06/12 06:34:33;;;;;;;;;;;;;;;21.62;54.49;101885.16;5030419;28;19929;-48
2022/06/12 06:36:59;;;;;;;;;;;;;;;21.69;54.29;101884.63;5030847;28;19920;-48
2022/06/12 06:39:25;;;;;;;;;;;;;;;21.74;54.54;101887.75;5026574;28;19948;-48
2022/06/12 06:41:50;;;;;;;;;;;;;;;21.78;54.64;101890.00;5025333;28;19913;-48
2022/06/12 06:46:59;;;;;;;;;;;;;;;21.89;54.72;101891.75;5022831;28;19967;-48
2022/06/12 06:49:25;;;;;;;;;;;;;;;21.94;54.72;101894.03;5029771;28;19921;-50
2022/06/12 06:51:51;;;;;;;;;;;;;;;21.98;54.83;101900.81;5020528;28;20064;-48
2022/06/12 06:54:16;;;;;;;;;;;;;;;22.00;54.77;101898.84;5028529;28;19921;-52
2022/06/12 06:56:42;;;;;;;;;;;;;;;22.02;54.70;101896.03;5026517;28;19928;-49
2022/06/12 06:59:07;;;;;;;;;;;;;;;22.02;54.73;101896.03;5018783;28;19925;-48
2022/06/12 07:01:34;;;;;;;;;;;;;;;22.07;54.59;101899.16;5025419;28;19929;-51
2022/06/12 07:04:00;;;;;;;;;;;;;;;22.10;54.32;101909.59;5021763;28;19939;-49
2022/06/12 07:06:25;;;;;;;;;;;;;;;22.13;54.48;101903.97;5021377;28;19917;-49
2022/06/12 07:08:51;;;;;;;;;;;;;;;22.16;54.18;101911.72;5025369;28;19955;-47
2022/06/12 07:11:18;;;;;;;;;;;;;;;22.18;54.06;101903.56;5022591;28;19928;-49
2022/06/12 07:13:43;;;;;;;;;;;;;;;22.18;54.14;101903.56;5017681;28;19921;-51
2022/06/12 07:16:09;;;;;;;;;;;;;;;22.17;54.08;101899.19;5024882;28;19921;-50
2022/06/12 07:18:34;;;;;;;;;;;;;;;22.19;54.42;101897.22;5024859;28;20040;-51
2022/06/12 07:21:03;;;;;;;;;;;;;;;22.21;54.29;101896.09;5022627;28;19925;-52
2022/06/12 07:23:29;;;;;;;;;;;;;;;22.22;54.30;101897.78;5011450;28;19932;-51
2022/06/12 07:25:57;;;;;;;;;;;;;;;22.23;54.22;101894.13;5021409;28;19917;-50
2022/06/12 07:28:23;;;;;;;;;;;;;;;22.27;54.46;101891.16;5017009;28;20373;-53
2022/06/12 07:30:50;;;;;;;;;;;;;;;22.26;54.57;101887.63;5022815;28;19971;-52
2022/06/12 07:33:15;;;;;;;;;;;;;;;22.27;54.70;101883.13;5023957;28;19916;-45
2022/06/12 07:35:42;;;;;;;;;;;;;;;22.25;54.82;101890.47;5018897;28;19924;-50
2022/06/12 07:38:07;;;;;;;;;;;;;;;22.21;54.76;101908.66;5018178;28;19980;-47
2022/06/12 07:40:35;;;;;;;;;;;;;;;22.18;54.98;101911.59;5027955;28;20000;-47
2022/06/12 07:43:01;;;;;;;;;;;;;;;22.12;54.87;101912.13;5026998;28;20331;-45
2022/06/12 07:45:26;;;;;;;;;;;;;;;22.08;55.05;101909.72;5024291;28;19917;-46
2022/06/12 07:47:52;;;;;;;;;;;;;;;22.05;55.00;101911.84;5023655;28;19925;-46
2022/06/12 07:50:17;;;;;;;;;;;;;;;22.01;55.00;101903.22;5025986;28;20016;-49
2022/06/12 07:52:43;;;;;;;;;;;;;;;21.98;54.76;101906.16;5027013;28;19929;-45
2022/06/12 07:55:09;;;;;;;;;;;;;;;21.91;55.09;101889.78;5027378;28;19917;-45
2022/06/12 07:57:35;;;;;;;;;;;;;;;21.90;55.09;101897.97;5029593;28;20055;-45
2022/06/12 08:00:00;;;;;;;;;;;;;;;21.88;54.92;101895.41;5025382;28;20008;-44
2022/06/12 08:02:25;;;;;;;;;;;;;;;21.86;55.04;101897.38;5028034;28;19921;-47
2022/06/12 08:04:51;;;;;;;;;;;;;;;21.83;55.24;101889.63;5019996;28;20018;-46
2022/06/12 08:07:16;;;;;;;;;;;;;;;21.82;55.26;101879.91;5012619;28;19987;-47
2022/06/12 08:09:41;;;;;;;;;;;;;;;21.86;55.13;101886.66;5023986;28;19921;-49
2022/06/12 08:12:07;;;;;;;;;;;;;;;21.86;55.51;101875.09;5023618;28;20036;-44
2022/06/12 08:14:32;;;;;;;;;;;;;;;21.87;55.38;101874.13;5016281;28;19952;-44
2022/06/12 08:16:58;;;;;;;;;;;;;;;21.88;55.39;101868.63;5013110;28;19921;-46
2022/06/12 08:22:08;;;;;;;;;;;;;;;21.91;55.41;101863.00;5026582;28;20342;-48
2022/06/12 08:24:33;;;;;;;;;;;;;;;21.94;55.86;101867.22;5025264;28;20400;-47
2022/06/12 08:26:59;;;;;;;;;;;;;;;21.95;56.03;101866.25;5020981;28;19971;-44
2022/06/12 08:29:25;;;;;;;;;;;;;;;21.96;56.01;101862.59;5025810;28;19963;-46
2022/06/12 08:31:52;;;;;;;;;;;;;;;21.96;55.73;101856.38;5028490;28;19921;-50
2022/06/12 08:34:23;;;;;;;;;;;;;;;21.96;56.09;101849.19;5031913;28;19929;-44
2022/06/12 08:36:52;;;;;;;;;;;;;;;21.96;56.23;101853.72;5021835;28;19925;-47
2022/06/12 08:39:17;;;;;;;;;;;;;;;21.97;56.06;101855.41;5030991;28;19945;-44
2022/06/12 08:41:47;;;;;;;;;;;;;;;22.01;55.88;101862.16;5026092;28;19921;-47
2022/06/12 08:44:21;;;;;;;;;;;;;;;22.04;56.29;101864.56;5029206;28;19932;-48
2022/06/12 08:46:47;;;;;;;;;;;;;;;22.06;56.02;101859.94;5026258;28;19925;-45
2022/06/12 08:49:22;;;;;;;;;;;;;;;22.09;56.13;101859.66;5028842;28;19921;-47
2022/06/12 08:51:53;;;;;;;;;;;;;;;22.15;55.77;101842.19;5029344;28;19925;-45
2022/06/12 08:54:25;;;;;;;;;;;;;;;22.21;55.72;101834.44;5027694;28;20403;-46
2022/06/12 08:56:52;;;;;;;;;;;;;;;22.28;55.66;101824.00;5029165;28;19917;-45
2022/06/12 08:59:38;;;;;;;;;;;;;;;22.37;55.42;101830.34;5029794;28;19960;-48
2022/06/12 09:02:05;;;;;;;;;;;;;;;22.46;55.18;101832.22;5027130;28;19916;-45
2022/06/12 09:04:30;;;;;;;;;;;;;;;22.56;55.45;101834.06;5028213;28;19932;-44
2022/06/12 09:06:59;;;;;;;;;;;;;;;22.64;54.90;101843.09;5029875;28;20024;-48
2022/06/12 09:09:31;;;;;;;;;;;;;;;22.69;55.10;101840.81;5026159;28;20327;-49
2022/06/12 09:12:15;;;;;;;;;;;;;;;22.76;54.78;101834.91;5039448;28;19917;-46
2022/06/12 09:14:53;;;;;;;;;;;;;;;22.76;54.61;101835.78;5023339;28;20605;-48
2022/06/12 09:17:36;;;;;;;;;;;;;;;22.77;54.36;101837.44;5024879;28;20131;-45
2022/06/12 09:20:11;;;;;;;;;;;;;;;22.76;54.48;101834.91;5022951;28;19925;-45
2022/06/12 09:22:49;;;;;;;;;;;;;;;22.78;54.46;101839.13;5026674;28;19924;-48
2022/06/12 09:25:40;;;;;;;;;;;;;;;22.83;54.45;101830.69;5019303;28;20461;-47
2022/06/12 09:28:09;;;;;;;;;;;;;;;22.90;54.53;101825.59;5027601;28;20015;-47
2022/06/12 09:30:35;;;;;;;;;;;;;;;22.98;54.29;101833.75;5015770;28;19917;-47
2022/06/12 09:33:09;;;;;;;;;;;;;;;23.08;54.18;101833.72;5022234;28;19923;-45
2022/06/12 09:35:40;;;;;;;;;;;;;;;23.12;53.92;101824.41;5024590;28;19933;-47
2022/06/12 09:38:21;;;;;;;;;;;;;;;23.17;53.81;101826.66;5032933;28;19917;-48
2022/06/12 09:40:52;;;;;;;;;;;;;;;23.23;53.55;101824.25;5042536;28;20023;-46
2022/06/12 09:43:28;;;;;;;;;;;;;;;23.31;53.39;101818.16;5027007;28;19967;-47
2022/06/12 09:46:02;;;;;;;;;;;;;;;23.34;53.39;101812.50;5021814;28;19917;-44
2022/06/12 09:48:36;;;;;;;;;;;;;;;23.41;53.36;101804.69;5023970;28;19921;-47
2022/06/12 09:51:18;;;;;;;;;;;;;;;23.48;53.29;101807.63;5025795;28;19917;-47
2022/06/12 09:53:46;;;;;;;;;;;;;;;23.57;52.89;101806.75;5018985;28;19928;-48
2022/06/12 09:56:35;;;;;;;;;;;;;;;23.65;53.01;101797.94;5019718;28;19924;-45
2022/06/12 09:59:12;;;;;;;;;;;;;;;23.71;52.70;101803.56;5021160;28;20007;-47
2022/06/12 10:01:40;;;;;;;;;;;;;;;23.76;52.56;101792.34;5020462;28;20430;-48
2022/06/12 10:04:29;;;;;;;;;;;;;;;23.83;52.30;101784.53;5025497;28;20401;-48
2022/06/12 10:07:05;;;;;;;;;;;;;;;23.89;52.27;101779.44;5022164;28;19921;-48
2022/06/12 10:09:36;;;;;;;;;;;;;;;23.94;52.04;101784.34;5025389;28;19921;-48
2022/06/12 10:12:01;;;;;;;;;;;;;;;24.00;52.25;101778.38;5022917;28;19964;-47
2022/06/12 10:14:39;;;;;;;;;;;;;;;24.09;51.85;101784.69;5028020;28;19961;-48
2022/06/12 10:17:11;;;;;;;;;;;;;;;24.12;51.50;101778.16;5021337;28;19917;-47
2022/06/12 10:19:49;;;;;;;;;;;;;;;24.14;51.40;101765.38;5024699;28;19921;-48
2022/06/12 10:22:43;;;;;;;;;;;;;;;24.17;51.25;101765.09;5021774;28;19947;-49
2022/06/12 10:25:15;;;;;;;;;;;;;;;24.22;51.41;101759.25;5024696;28;19924;-47
2022/06/12 10:27:45;;;;;;;;;;;;;;;24.30;51.17;101754.78;5025540;28;19924;-48
2022/06/12 10:30:34;;;;;;;;;;;;;;;24.39;51.10;101754.88;5025002;28;20031;-46
2022/06/12 10:33:08;;;;;;;6.70;3.80;;;;;;;24.61;49.86;101756.22;5018857;28;20827;-48
2022/06/12 10:35:49;;;;;;;8.10;3.70;;;;;;;24.69;49.69;101756.28;5029894;28;20038;-47
2022/06/12 10:38:15;;;;;;;5.07;2.88;;;;;;;24.80;49.25;101747.13;5026802;28;20033;-48
2022/06/12 10:40:48;;;;;;;5.00;2.75;;;;;;;24.90;48.08;101755.94;5023009;28;20546;-46
2022/06/12 10:43:26;;;;;;;6.15;2.58;;;;;;;25.01;47.58;101748.59;5024782;28;20056;-46
2022/06/12 10:46:02;;;;;;;5.50;2.30;;;;;;;25.09;46.48;101743.25;5023986;28;20025;-47
2022/06/12 10:48:32;;;;;;;5.43;2.50;;;;;;;25.14;46.21;101735.53;5012864;28;20441;-47
2022/06/12 10:51:00;;;;;;;5.30;2.42;;;;;;;25.22;45.79;101742.81;5016531;28;20079;-50
2022/06/12 10:53:29;;;;;;;4.10;2.30;;;;;;;25.31;44.66;101741.00;5018877;28;20059;-53
2022/06/12 10:56:22;;;;;;;5.80;2.50;;;;;;;25.38;43.33;101748.28;5020038;28;20463;-52
2022/06/12 10:59:25;;;;;;;5.85;2.38;;;;;;;25.37;42.47;101740.34;5017467;28;20037;-47
2022/06/12 11:02:06;;;;;;;6.03;2.28;;;;;;;25.26;41.89;101750.41;5023836;28;20029;-47
2022/06/12 11:05:12;;;;;;;7.75;3.17;;;;;;;25.19;42.00;101738.56;5022882;28;20104;-48
2022/06/12 11:08:14;;;;;;;5.43;2.53;;;;;;;25.18;41.69;101736.06;5024034;28;20032;-49
2022/06/12 11:10:40;;;;;;;6.32;2.10;;;;;;;25.16;41.78;101738.94;5017010;28;20488;-46
2022/06/12 11:13:14;;;;;;;9.70;4.28;;;;;;;25.18;41.97;101742.31;5012811;28;20030;-50
2022/06/12 11:15:58;;;;;;;5.97;2.25;;;;;;;25.16;41.61;101738.94;5033908;28;20067;-49
2022/06/12 11:18:26;;;;;;;8.10;2.08;;;;;;;25.17;41.45;101737.06;5024481;28;20033;-49
2022/06/12 11:21:03;;;;;;;5.20;2.25;;;;;;;25.19;40.90;101735.06;5026086;28;20037;-48
2022/06/12 11:23:35;;;;;;;5.20;3.05;;;;;;;25.16;41.13;101735.38;5023929;28;20033;-45
2022/06/12 11:26:13;;;;;;;6.18;2.80;;;;;;;25.15;41.55;101723.78;5019785;28;20143;-48
2022/06/12 11:28:51;;;;;;;7.80;2.63;;;;;;;25.16;41.41;101721.91;5016180;28;20034;-50
2022/06/12 11:31:43;;;;;;;6.22;2.45;;;;;;;25.18;41.66;101719.91;5013909;28;20029;-49
2022/06/12 11:34:46;;;;;;;7.32;2.90;;;;;;;25.16;41.77;101712.00;5014941;28;20504;-47
2022/06/12 11:37:33;;;;;;;5.05;3.08;;;;;;;25.16;42.04;101712.00;5022427;28;20507;-45
2022/06/12 11:40:03;;;;;;;7.07;3.00;;;;;;;25.20;41.69;101713.34;5015443;28;20072;-47
2022/06/12 11:42:34;;;;;;;5.80;2.53;;;;;;;25.15;41.61;101713.00;5012846;28;20199;-49
2022/06/12 11:45:24;;;;;;;6.70;2.53;;;;;;;25.09;41.60;101710.94;5018181;28;20029;-46
2022/06/12 11:47:58;;;;;;;4.05;2.20;;;;;;;25.04;40.77;101713.25;5020316;28;20026;-46
2022/06/12 11:50:35;;;;;;;4.57;2.42;;;;;;;24.99;40.53;101704.84;5015639;28;20021;-49
2022/06/12 11:53:28;;;;;;;9.05;2.40;;;;;;;24.96;40.48;101700.59;5020403;28;20051;-48
2022/06/12 11:55:56;;;;;;;5.55;2.45;;;;;;;24.98;40.72;101700.47;5020122;28;20029;-46
2022/06/12 11:58:53;;;;;;;6.13;2.90;;;;;;;25.04;40.45;101697.09;5021962;28;20021;-45
2022/06/12 12:01:40;;;;;;;5.05;2.42;;;;;;;25.10;40.66;101691.09;5019629;28;20031;-46
2022/06/12 12:04:24;;;;;;;8.35;2.50;;;;;;;25.16;40.50;101686.91;5024910;28;20028;-50
2022/06/12 12:07:31;;;;;;;8.15;2.50;;;;;;;25.19;40.44;101692.78;5021036;28;20117;-48
2022/06/12 12:10:08;;;;;;;5.63;2.35;;;;;;;25.17;40.73;101693.97;5015796;28;20040;-46
2022/06/12 12:12:39;;;;;;;5.05;2.30;;;;;;;25.12;41.19;101683.69;5022558;28;20695;-47
2022/06/12 12:15:13;;;;;;;8.00;2.50;;;;;;;25.13;41.52;101679.13;5020592;28;21966;-47
2022/06/12 12:17:41;;;;;;;5.43;2.58;;;;;;;25.17;41.80;101681.38;5019069;28;20488;-46
2022/06/12 12:20:28;;;;;;;6.20;2.57;;;;;;;25.22;41.60;101683.56;5024326;28;20037;-46
2022/06/12 12:22:56;;;;;;;4.70;2.53;;;;;;;25.22;41.88;101670.94;5020299;28;20164;-47
2022/06/12 12:25:24;;;;;;;5.82;2.67;;;;;;;25.23;41.73;101669.09;5025066;28;20041;-46
2022/06/12 12:27:53;;;;;;;6.45;2.90;;;;;;;25.24;41.45;101668.94;5024482;28;20067;-46
2022/06/12 12:30:23;;;;;;;5.10;2.70;;;;;;;25.27;41.86;101659.66;5021841;28;20485;-46
2022/06/12 12:32:52;;;;;;;4.90;2.70;;;;;;;25.25;41.82;101657.16;5024646;28;20091;-46
2022/06/12 12:43:45;;;;;;;8.05;2.47;;;;;;;25.41;40.32;101658.19;5022368;28;20087;-50
2022/06/12 12:46:11;;;;;;;5.55;2.10;;;;;;;25.46;40.12;101644.25;5022165;28;20033;-48
2022/06/12 12:48:42;;;;;;;6.85;2.35;;;;;;;25.52;39.65;101647.13;5018514;28;20025;-51
2022/06/12 12:51:10;;;;;;;4.25;2.00;;;;;;;25.56;39.44;101642.28;5021259;28;20507;-49
2022/06/12 12:53:38;;;;;;;6.45;2.10;;;;;;;25.65;39.13;101648.50;5020208;28;20029;-47
2022/06/12 12:56:12;;;;;;;4.80;2.13;;;;;;;25.69;39.56;101631.84;5023708;28;20044;-47
2022/06/12 12:58:54;;;;;;;5.20;2.20;;;;;;;25.82;39.31;101638.59;5021946;28;20044;-48
2022/06/12 13:01:25;;;;;;;4.70;2.17;;;;;;;25.96;38.40;101631.66;5022253;28;20034;-46